createdAt,value
2022-07-29T00:01:41.758Z,98511.00
2022-07-29T00:04:46.722Z,98506.40
2022-07-29T00:07:51.295Z,98507.40
2022-07-29T00:10:55.803Z,98504.20
2022-07-29T00:14:00.626Z,98510.00
2022-07-29T00:17:05.760Z,98509.20
2022-07-29T00:20:12.542Z,98502.20
2022-07-29T00:23:17.196Z,98503.40
2022-07-29T00:26:22.157Z,98507.60
2022-07-29T00:29:35.087Z,98503.80
2022-07-29T00:32:40.281Z,98501.00
2022-07-29T00:35:45.527Z,98504.40
2022-07-29T00:38:51.324Z,98507.40
2022-07-29T00:41:56.437Z,98500.80
2022-07-29T00:45:03.514Z,98502.00
2022-07-29T00:48:10.881Z,98499.80
2022-07-29T00:51:15.969Z,98494.40
2022-07-29T00:54:20.919Z,98496.60
2022-07-29T00:57:25.890Z,98501.20
2022-07-29T01:00:31.519Z,98499.20
2022-07-29T01:03:36.679Z,98498.20
2022-07-29T01:06:41.956Z,98497.00
2022-07-29T01:09:48.139Z,98494.20
2022-07-29T01:12:58.109Z,98491.80
2022-07-29T01:16:14.036Z,98490.00
2022-07-29T01:19:49.798Z,98491.00
2022-07-29T01:23:22.915Z,98487.60
2022-07-29T01:26:50.463Z,98485.80
2022-07-29T01:29:59.143Z,98485.80
2022-07-29T01:33:09.651Z,98484.60
2022-07-29T01:36:24.429Z,98487.00
2022-07-29T01:39:35.993Z,98483.40
2022-07-29T01:42:47.715Z,98479.00
2022-07-29T01:46:00.754Z,98480.80
2022-07-29T01:49:14.367Z,98486.80
2022-07-29T01:52:28.304Z,98483.80
2022-07-29T01:55:39.335Z,98481.80
2022-07-29T01:58:46.665Z,98481.80
2022-07-29T02:01:54.662Z,98480.20
2022-07-29T02:05:03.138Z,98477.40
2022-07-29T02:08:10.860Z,98480.60
2022-07-29T02:11:16.387Z,98474.20
2022-07-29T02:14:24.069Z,98473.00
2022-07-29T02:17:34.495Z,98469.80
2022-07-29T02:20:46.808Z,98466.40
2022-07-29T02:23:53.433Z,98468.00
2022-07-29T02:27:01.325Z,98463.40
2022-07-29T02:30:10.618Z,98465.40
2022-07-29T02:33:19.323Z,98466.00
2022-07-29T02:36:26.386Z,98466.00
2022-07-29T02:39:32.762Z,98467.20
2022-07-29T02:42:42.354Z,98466.40
2022-07-29T02:45:48.250Z,98461.80
2022-07-29T02:49:04.961Z,98462.60
2022-07-29T02:52:22.911Z,98462.80
2022-07-29T02:55:33.707Z,98466.20
2022-07-29T02:58:46.540Z,98467.60
2022-07-29T03:01:53.585Z,98473.00
2022-07-29T03:05:01.017Z,98469.80
2022-07-29T03:08:10.339Z,98469.40
2022-07-29T03:11:16.245Z,98471.60
2022-07-29T03:14:23.334Z,98471.40
2022-07-29T03:17:28.639Z,98472.60
2022-07-29T03:20:33.827Z,98466.60
2022-07-29T03:23:44.283Z,98464.60
2022-07-29T03:26:49.113Z,98460.60
2022-07-29T03:29:53.749Z,98463.80
2022-07-29T03:32:59.040Z,98465.20
2022-07-29T03:36:03.954Z,98470.40
2022-07-29T03:39:10.415Z,98466.80
2022-07-29T03:42:18.934Z,98472.40
2022-07-29T03:45:25.778Z,98468.60
2022-07-29T03:48:36.161Z,98468.40
2022-07-29T03:51:41.488Z,98467.20
2022-07-29T03:54:46.724Z,98471.40
2022-07-29T03:57:53.240Z,98469.00
2022-07-29T04:00:59.292Z,98476.80
2022-07-29T04:04:05.193Z,98477.00
2022-07-29T04:07:15.743Z,98479.40
2022-07-29T04:10:28.323Z,98479.00
2022-07-29T04:13:36.963Z,98482.40
2022-07-29T04:16:41.614Z,98478.60
2022-07-29T04:19:46.144Z,98479.60
2022-07-29T04:22:51.316Z,98482.80
2022-07-29T04:25:55.897Z,98484.40
2022-07-29T04:29:00.906Z,98482.80
2022-07-29T04:32:06.884Z,98485.80
2022-07-29T04:35:12.271Z,98485.60
2022-07-29T04:38:17.320Z,98486.20
2022-07-29T04:41:22.194Z,98483.20
2022-07-29T04:44:29.179Z,98484.00
2022-07-29T04:47:34.154Z,98488.00
2022-07-29T04:50:41.160Z,98489.80
2022-07-29T04:53:46.217Z,98489.40
2022-07-29T04:56:51.126Z,98491.60
2022-07-29T04:59:56.090Z,98493.40
2022-07-29T05:03:01.058Z,98495.80
2022-07-29T05:06:06.174Z,98491.40
2022-07-29T05:09:10.703Z,98493.20
2022-07-29T05:12:15.951Z,98493.80
2022-07-29T05:15:21.166Z,98491.80
2022-07-29T05:18:26.681Z,98488.20
2022-07-29T05:21:31.312Z,98495.60
2022-07-29T05:24:36.145Z,98496.00
2022-07-29T05:27:40.967Z,98494.40
2022-07-29T05:30:46.009Z,98499.00
2022-07-29T05:33:50.827Z,98498.20
2022-07-29T05:36:55.725Z,98493.40
2022-07-29T05:40:00.392Z,98497.40
2022-07-29T05:43:05.194Z,98494.20
2022-07-29T05:46:09.852Z,98503.80
2022-07-29T05:49:26.829Z,98505.60
2022-07-29T05:52:32.456Z,98500.00
2022-07-29T05:55:37.281Z,98504.40
2022-07-29T05:58:44.295Z,98506.80
2022-07-29T06:01:49.195Z,98510.60
2022-07-29T06:04:54.126Z,98515.20
2022-07-29T06:07:59.162Z,98505.80
2022-07-29T06:11:04.837Z,98512.20
2022-07-29T06:14:10.024Z,98514.20
2022-07-29T06:17:14.684Z,98517.20
2022-07-29T06:20:20.158Z,98513.40
2022-07-29T06:23:32.168Z,98517.60
2022-07-29T06:26:39.592Z,98521.40
2022-07-29T06:29:45.159Z,98517.40
2022-07-29T06:32:51.782Z,98523.60
2022-07-29T06:35:56.530Z,98518.40
2022-07-29T06:39:02.763Z,98526.60
2022-07-29T06:42:08.861Z,98535.20
2022-07-29T06:45:14.337Z,98530.00
2022-07-29T06:48:19.094Z,98528.40
2022-07-29T06:51:24.381Z,98538.40
2022-07-29T06:54:29.606Z,98537.00
2022-07-29T06:57:34.772Z,98534.80
2022-07-29T07:00:40.055Z,98540.40
2022-07-29T07:03:44.776Z,98536.20
2022-07-29T07:06:49.573Z,98531.80
2022-07-29T07:09:55.288Z,98537.60
2022-07-29T07:13:00.056Z,98538.00
2022-07-29T07:16:06.506Z,98543.00
2022-07-29T07:19:11.493Z,98532.60
2022-07-29T07:22:19.236Z,98534.40
2022-07-29T07:25:24.148Z,98534.00
2022-07-29T07:28:29.159Z,98528.40
2022-07-29T07:31:33.857Z,98526.80
2022-07-29T07:34:39.134Z,98528.40
2022-07-29T07:37:44.281Z,98525.60
2022-07-29T07:40:51.528Z,98522.60
2022-07-29T07:43:56.451Z,98525.60
2022-07-29T07:47:03.947Z,98521.60
2022-07-29T07:50:21.239Z,98523.80
2022-07-29T07:53:27.008Z,98527.60
2022-07-29T07:56:35.180Z,98523.60
2022-07-29T07:59:40.943Z,98521.60
2022-07-29T08:02:46.205Z,98524.60
2022-07-29T08:05:52.318Z,98518.20
2022-07-29T08:09:19.494Z,98515.80
2022-07-29T08:12:22.276Z,98513.20
2022-07-29T08:15:27.076Z,98517.60
2022-07-29T08:18:33.209Z,98519.60
2022-07-29T08:21:38.420Z,98515.80
2022-07-29T08:24:52.704Z,98518.60
2022-07-29T08:27:57.380Z,98520.00
2022-07-29T08:31:02.084Z,98513.80
2022-07-29T08:34:07.633Z,98516.80
2022-07-29T08:37:13.196Z,98516.20
2022-07-29T08:40:18.805Z,98520.00
2022-07-29T08:43:24.206Z,98519.20
2022-07-29T08:46:28.985Z,98512.20
2022-07-29T08:49:36.377Z,98514.00
2022-07-29T08:52:43.627Z,98511.60
2022-07-29T08:55:51.711Z,98512.60
2022-07-29T08:58:58.640Z,98517.80
2022-07-29T09:02:05.387Z,98518.00
2022-07-29T09:05:11.779Z,98515.60
2022-07-29T09:08:17.516Z,98510.80
2022-07-29T09:11:22.631Z,98517.80
2022-07-29T09:14:27.596Z,98512.20
2022-07-29T09:17:45.959Z,98510.20
2022-07-29T09:21:12.679Z,98508.60
2022-07-29T09:24:17.477Z,98510.60
2022-07-29T09:27:27.021Z,98514.40
2022-07-29T09:30:32.471Z,98506.80
2022-07-29T09:33:39.760Z,98506.80
2022-07-29T09:36:46.884Z,98504.00
2022-07-29T09:39:51.841Z,98495.80
2022-07-29T09:42:57.707Z,98491.20
2022-07-29T09:46:13.873Z,98494.20
2022-07-29T09:49:18.682Z,98490.00
2022-07-29T09:52:24.063Z,98482.60
2022-07-29T09:55:29.429Z,98488.60
2022-07-29T09:58:35.246Z,98486.20
2022-07-29T10:01:39.870Z,98486.00
2022-07-29T10:04:45.494Z,98487.20
2022-07-29T10:07:54.317Z,98485.60
2022-07-29T10:11:13.602Z,98485.60
2022-07-29T10:14:18.667Z,98481.20
2022-07-29T10:17:24.145Z,98486.40
2022-07-29T10:20:30.150Z,98484.60
2022-07-29T10:23:46.824Z,98484.40
2022-07-29T10:26:52.744Z,98483.00
2022-07-29T10:29:57.666Z,98472.00
2022-07-29T10:33:40.129Z,98471.60
2022-07-29T10:36:57.675Z,98478.80
2022-07-29T10:40:37.107Z,98473.20
2022-07-29T10:47:26.545Z,98467.00
2022-07-29T10:50:59.904Z,98465.40
2022-07-29T10:54:09.212Z,98461.60
2022-07-29T10:57:21.645Z,98465.80
2022-07-29T11:00:36.348Z,98456.40
2022-07-29T11:03:57.266Z,98458.80
2022-07-29T11:07:17.624Z,98461.60
2022-07-29T11:10:30.989Z,98454.80
2022-07-29T11:14:05.882Z,98448.40
2022-07-29T11:17:18.399Z,98439.20
2022-07-29T11:20:49.821Z,98435.00
2022-07-29T11:24:29.045Z,98439.80
2022-07-29T11:27:40.772Z,98433.20
2022-07-29T11:30:57.864Z,98430.60
2022-07-29T11:34:27.980Z,98421.40
2022-07-29T11:41:40.425Z,98428.80
2022-07-29T11:45:08.485Z,98419.60
2022-07-29T11:48:32.521Z,98414.80
2022-07-29T11:51:48.227Z,98412.80
2022-07-29T11:55:00.850Z,98409.80
2022-07-29T11:58:25.086Z,98414.00
2022-07-29T12:01:36.988Z,98403.80
2022-07-29T12:04:56.213Z,98399.00
2022-07-29T12:07:01.663Z,98427.20
2022-07-29T12:08:14.783Z,98394.40
2022-07-29T12:11:23.921Z,98401.20
2022-07-29T12:14:35.154Z,98402.20
2022-07-29T12:17:43.342Z,98396.40
2022-07-29T12:20:59.090Z,98394.00
2022-07-29T12:24:12.281Z,98391.40
2022-07-29T12:27:29.290Z,98385.00
2022-07-29T12:30:52.707Z,98381.80
2022-07-29T12:34:00.848Z,98381.40
2022-07-29T12:37:11.516Z,98386.40
2022-07-29T12:40:21.139Z,98374.00
2022-07-29T12:43:30.062Z,98377.20
2022-07-29T12:46:38.124Z,98374.00
2022-07-29T12:49:47.845Z,98367.60
2022-07-29T12:52:56.071Z,98359.20
2022-07-29T12:56:15.500Z,98362.40
2022-07-29T12:59:33.348Z,98360.20
2022-07-29T13:02:44.670Z,98356.20
2022-07-29T13:05:52.790Z,98357.80
2022-07-29T13:09:09.294Z,98353.00
2022-07-29T13:12:17.854Z,98354.80
2022-07-29T13:15:24.511Z,98349.60
2022-07-29T13:18:37.753Z,98343.80
2022-07-29T13:21:47.923Z,98342.00
2022-07-29T13:24:59.887Z,98336.60
2022-07-29T13:28:08.274Z,98337.60
2022-07-29T13:31:16.289Z,98328.00
2022-07-29T13:34:25.349Z,98331.60
2022-07-29T13:37:35.335Z,98327.60
2022-07-29T13:40:43.232Z,98326.20
2022-07-29T13:43:51.099Z,98326.20
2022-07-29T13:47:00.027Z,98315.00
2022-07-29T13:50:11.624Z,98316.20
2022-07-29T13:53:19.737Z,98313.00
2022-07-29T13:56:35.225Z,98312.20
2022-07-29T13:59:44.069Z,98305.60
2022-07-29T14:02:52.731Z,98305.40
2022-07-29T14:06:01.347Z,98296.60
2022-07-29T14:09:10.721Z,98291.40
2022-07-29T14:12:18.608Z,98291.00
2022-07-29T14:15:27.008Z,98296.80
2022-07-29T14:18:33.211Z,98292.80
2022-07-29T14:21:41.355Z,98289.00
2022-07-29T14:24:49.485Z,98287.40
2022-07-29T14:27:57.757Z,98280.80
2022-07-29T14:31:06.540Z,98276.60
2022-07-29T14:34:14.388Z,98277.60
2022-07-29T14:37:22.172Z,98274.80
2022-07-29T14:40:30.284Z,98267.80
2022-07-29T14:43:38.934Z,98264.20
2022-07-29T14:46:49.498Z,98262.60
2022-07-29T14:49:57.467Z,98263.00
2022-07-29T14:53:05.871Z,98263.20
2022-07-29T14:56:35.498Z,98252.60
2022-07-29T14:59:40.037Z,98258.20
2022-07-29T15:03:03.288Z,98257.80
2022-07-29T15:06:11.396Z,98248.80
2022-07-29T15:09:19.415Z,98246.60
2022-07-29T15:12:27.387Z,98241.40
2022-07-29T15:15:35.470Z,98244.00
2022-07-29T15:18:43.245Z,98239.20
2022-07-29T15:21:51.273Z,98239.60
2022-07-29T15:24:59.277Z,98240.00
2022-07-29T15:28:09.324Z,98244.00
2022-07-29T15:31:17.519Z,98234.00
2022-07-29T15:34:25.526Z,98234.80
2022-07-29T15:37:48.689Z,98230.20
2022-07-29T15:40:57.693Z,98234.80
2022-07-29T15:44:05.676Z,98225.60
2022-07-29T15:47:13.671Z,98219.60
2022-07-29T15:50:24.506Z,98223.40
2022-07-29T15:53:32.537Z,98221.60
2022-07-29T15:56:42.976Z,98225.20
2022-07-29T15:59:52.074Z,98219.00
2022-07-29T16:02:59.918Z,98220.40
2022-07-29T16:06:08.917Z,98217.40
2022-07-29T16:09:16.926Z,98217.20
2022-07-29T16:12:25.676Z,98213.20
2022-07-29T16:15:31.884Z,98215.60
2022-07-29T16:18:39.731Z,98215.80
2022-07-29T16:21:47.564Z,98218.40
2022-07-29T16:24:56.011Z,98221.00
2022-07-29T16:28:03.753Z,98213.00
2022-07-29T16:31:12.183Z,98210.20
2022-07-29T16:34:20.015Z,98209.60
2022-07-29T16:37:33.609Z,98207.40
2022-07-29T16:40:41.435Z,98212.00
2022-07-29T16:43:49.979Z,98203.60
2022-07-29T16:47:00.018Z,98205.60
2022-07-29T16:50:09.952Z,98205.80
2022-07-29T16:53:17.872Z,98212.80
2022-07-29T16:56:26.239Z,98209.20
2022-07-29T16:59:34.471Z,98208.80
2022-07-29T17:02:51.799Z,98211.60
2022-07-29T17:06:00.159Z,98211.40
2022-07-29T17:09:10.362Z,98210.60
2022-07-29T17:12:18.066Z,98209.60
2022-07-29T17:15:26.632Z,98205.20
2022-07-29T17:18:34.369Z,98212.20
2022-07-29T17:21:47.329Z,98209.20
2022-07-29T17:24:57.278Z,98211.00
2022-07-29T17:28:05.731Z,98215.20
2022-07-29T17:31:14.247Z,98216.00
2022-07-29T17:34:22.742Z,98218.60
2022-07-29T17:37:30.964Z,98216.20
2022-07-29T17:40:39.121Z,98216.00
2022-07-29T17:43:47.164Z,98220.80
2022-07-29T17:46:55.322Z,98230.00
2022-07-29T17:50:03.673Z,98239.00
2022-07-29T17:53:15.898Z,98233.80
2022-07-29T17:56:24.746Z,98241.60
2022-07-29T17:59:32.627Z,98245.20
2022-07-29T18:02:40.659Z,98244.40
2022-07-29T18:05:49.583Z,98250.80
2022-07-29T18:08:57.746Z,98244.20
2022-07-29T18:12:06.033Z,98244.60
2022-07-29T18:15:15.062Z,98246.80
2022-07-29T18:18:21.336Z,98253.00
2022-07-29T18:21:44.281Z,98250.60
2022-07-29T18:24:57.507Z,98246.60
2022-07-29T18:28:06.428Z,98252.40
2022-07-29T18:31:13.581Z,98249.80
2022-07-29T18:34:21.543Z,98247.40
2022-07-29T18:38:01.535Z,98254.20
2022-07-29T18:40:57.957Z,98250.60
2022-07-29T18:44:06.315Z,98253.20
2022-07-29T18:47:14.263Z,98261.20
2022-07-29T18:50:26.962Z,98256.00
2022-07-29T18:53:37.388Z,98256.40
2022-07-29T18:56:45.888Z,98259.40
2022-07-29T18:59:54.500Z,98249.60
2022-07-29T19:03:03.414Z,98250.60
2022-07-29T19:06:11.398Z,98249.20
2022-07-29T19:09:19.925Z,98251.20
2022-07-29T19:12:27.968Z,98251.60
2022-07-29T19:15:35.821Z,98253.80
2022-07-29T19:18:45.385Z,98253.80
2022-07-29T19:21:53.262Z,98259.80
2022-07-29T19:25:01.066Z,98257.00
2022-07-29T19:28:09.866Z,98258.80
2022-07-29T19:31:18.573Z,98262.40
2022-07-29T19:34:26.565Z,98260.20
2022-07-29T19:37:34.463Z,98270.20
2022-07-29T19:40:42.844Z,98282.00
2022-07-29T19:43:53.240Z,98286.60
2022-07-29T19:47:02.025Z,98285.80
2022-07-29T19:50:12.554Z,98282.40
2022-07-29T19:53:20.540Z,98267.00
2022-07-29T19:56:30.224Z,98258.00
2022-07-29T19:59:38.437Z,98258.00
2022-07-29T20:02:46.662Z,98264.80
2022-07-29T20:05:54.858Z,98276.80
2022-07-29T20:09:06.167Z,98264.60
2022-07-29T20:12:15.132Z,98257.80
2022-07-29T20:15:23.020Z,98244.80
2022-07-29T20:18:30.955Z,98244.00
2022-07-29T20:21:38.948Z,98244.00
2022-07-29T20:24:47.448Z,98241.40
2022-07-29T20:27:55.401Z,98253.40
2022-07-29T20:31:03.273Z,98256.20
2022-07-29T20:34:11.820Z,98258.20
2022-07-29T20:37:21.188Z,98258.00
2022-07-29T20:40:29.102Z,98252.80
2022-07-29T20:43:39.296Z,98262.80
2022-07-29T20:46:48.955Z,98266.80
2022-07-29T20:49:57.187Z,98267.40
2022-07-29T20:53:05.143Z,98266.60
2022-07-29T20:56:13.529Z,98261.60
2022-07-29T20:59:21.696Z,98265.40
2022-07-29T21:02:31.549Z,98265.80
2022-07-29T21:05:43.937Z,98263.60
2022-07-29T21:08:52.395Z,98263.60
2022-07-29T21:12:02.172Z,98261.40
2022-07-29T21:15:13.708Z,98270.40
2022-07-29T21:18:30.485Z,98270.80
2022-07-29T21:21:40.985Z,98261.40
2022-07-29T21:24:48.913Z,98266.00
2022-07-29T21:28:14.574Z,98271.00
2022-07-29T21:31:22.467Z,98273.60
2022-07-29T21:34:30.524Z,98284.80
2022-07-29T21:37:38.453Z,98281.00
2022-07-29T21:40:47.526Z,98281.40
2022-07-29T21:43:58.324Z,98284.80
2022-07-29T21:47:07.796Z,98282.40
2022-07-29T21:50:15.885Z,98285.00
2022-07-29T21:53:24.396Z,98278.60
2022-07-29T21:56:35.227Z,98282.20
2022-07-29T21:59:42.841Z,98287.40
2022-07-29T22:02:50.988Z,98279.80
2022-07-29T22:05:58.971Z,98291.00
2022-07-29T22:09:06.964Z,98289.20
2022-07-29T22:12:15.021Z,98288.20
2022-07-29T22:15:23.458Z,98291.40
2022-07-29T22:18:31.475Z,98288.80
2022-07-29T22:21:39.294Z,98293.00
2022-07-29T22:24:47.365Z,98290.20
2022-07-29T22:27:55.321Z,98280.20
2022-07-29T22:31:03.690Z,98280.60
2022-07-29T22:34:13.179Z,98276.00
2022-07-29T22:37:19.500Z,98280.80
2022-07-29T22:40:30.548Z,98270.80
2022-07-29T22:43:41.082Z,98269.60
2022-07-29T22:46:49.097Z,98263.40
2022-07-29T22:49:57.975Z,98270.80
2022-07-29T22:53:05.891Z,98266.40
2022-07-29T22:56:14.208Z,98267.20
2022-07-29T22:59:22.318Z,98268.80
2022-07-29T23:02:30.346Z,98260.00
2022-07-29T23:05:38.201Z,98252.40
2022-07-29T23:08:46.508Z,98250.40
2022-07-29T23:11:54.317Z,98253.60
2022-07-29T23:15:02.282Z,98252.80
2022-07-29T23:18:12.457Z,98245.80
2022-07-29T23:21:21.782Z,98246.40
2022-07-29T23:24:30.301Z,98249.20
2022-07-29T23:27:38.261Z,98247.00
2022-07-29T23:30:46.474Z,98251.60
2022-07-29T23:33:54.701Z,98242.60
2022-07-29T23:37:03.085Z,98243.80
2022-07-29T23:40:14.887Z,98240.60
2022-07-29T23:43:25.268Z,98229.80
2022-07-29T23:46:33.570Z,98227.80
2022-07-29T23:49:41.603Z,98234.80
2022-07-29T23:52:49.785Z,98227.40
2022-07-29T23:55:58.297Z,98227.40
2022-07-29T23:59:06.247Z,98226.60
